createdAt,value
2018-10-17T00:01:33.976Z,19.67
2018-10-17T00:04:02.151Z,15.30
2018-10-17T00:06:30.326Z,15.60
2018-10-17T00:08:58.527Z,15.47
2018-10-17T00:11:26.699Z,15.93
2018-10-17T00:13:54.879Z,14.73
2018-10-17T00:16:23.055Z,15.10
2018-10-17T00:18:51.246Z,15.07
2018-10-17T00:21:19.403Z,14.50
2018-10-17T00:23:47.582Z,14.90
2018-10-17T00:26:15.747Z,14.77
2018-10-17T00:28:43.923Z,15.43
2018-10-17T00:31:12.185Z,14.53
2018-10-17T00:33:40.368Z,14.60
2018-10-17T00:36:08.588Z,15.53
2018-10-17T00:38:36.780Z,14.63
2018-10-17T00:41:05.032Z,14.97
2018-10-17T00:43:33.151Z,14.60
2018-10-17T00:46:01.319Z,15.10
2018-10-17T00:48:29.499Z,14.27
2018-10-17T00:50:57.666Z,15.37
2018-10-17T00:53:25.835Z,15.20
2018-10-17T00:55:54.462Z,15.80
2018-10-17T00:58:22.634Z,15.30
2018-10-17T01:00:50.815Z,14.60
2018-10-17T01:03:19.014Z,15.17
2018-10-17T01:05:47.199Z,14.47
2018-10-17T01:08:15.375Z,15.73
2018-10-17T01:10:43.555Z,15.33
2018-10-17T01:13:11.768Z,14.87
2018-10-17T01:15:39.957Z,15.03
2018-10-17T01:18:08.127Z,13.57
2018-10-17T01:20:36.330Z,14.13
2018-10-17T01:23:04.698Z,15.10
2018-10-17T01:25:32.823Z,15.23
2018-10-17T01:28:00.987Z,15.33
2018-10-17T01:30:29.167Z,15.47
2018-10-17T01:32:57.331Z,14.40
2018-10-17T01:35:25.515Z,14.00
2018-10-17T01:37:53.678Z,13.50
2018-10-17T01:40:21.893Z,16.00
2018-10-17T01:42:50.034Z,13.70
2018-10-17T01:45:18.211Z,15.20
2018-10-17T01:47:46.387Z,14.77
2018-10-17T01:50:14.571Z,14.77
2018-10-17T01:52:42.733Z,14.07
2018-10-17T01:55:10.953Z,15.10
2018-10-17T01:57:39.074Z,15.67
2018-10-17T02:00:07.413Z,16.60
2018-10-17T02:02:35.599Z,16.30
2018-10-17T02:05:03.850Z,13.97
2018-10-17T02:07:32.065Z,14.43
2018-10-17T02:10:00.311Z,12.93
2018-10-17T02:12:28.528Z,13.40
2018-10-17T02:14:56.710Z,15.07
2018-10-17T02:17:24.904Z,14.93
2018-10-17T02:19:53.084Z,16.00
2018-10-17T02:22:21.271Z,13.47
2018-10-17T02:24:49.591Z,12.90
2018-10-17T02:27:17.783Z,14.27
2018-10-17T02:29:45.968Z,14.17
2018-10-17T02:32:14.155Z,13.80
2018-10-17T02:34:47.674Z,13.67
2018-10-17T02:37:15.985Z,14.17
2018-10-17T02:39:44.125Z,13.97
2018-10-17T02:42:12.994Z,15.03
2018-10-17T02:44:41.698Z,14.53
2018-10-17T02:47:09.969Z,12.93
2018-10-17T02:49:38.075Z,14.37
2018-10-17T02:52:06.263Z,13.07
2018-10-17T02:54:34.627Z,13.90
2018-10-17T02:57:02.819Z,13.77
2018-10-17T02:59:31.021Z,13.97
2018-10-17T03:01:59.265Z,14.83
2018-10-17T03:04:27.485Z,13.90
2018-10-17T03:06:55.737Z,13.93
2018-10-17T03:09:23.871Z,13.57
2018-10-17T03:11:52.052Z,14.60
2018-10-17T03:14:20.214Z,13.60
2018-10-17T03:16:48.387Z,15.80
2018-10-17T03:19:16.635Z,16.10
2018-10-17T03:21:44.751Z,13.80
2018-10-17T03:24:12.927Z,14.07
2018-10-17T03:26:41.092Z,15.33
2018-10-17T03:29:09.340Z,13.80
2018-10-17T03:31:37.486Z,21.67
2018-10-17T03:34:05.753Z,14.20
2018-10-17T03:36:33.919Z,15.77
2018-10-17T03:39:02.103Z,16.53
2018-10-17T03:41:30.266Z,15.50
2018-10-17T03:43:58.450Z,15.47
2018-10-17T03:46:27.275Z,16.77
2018-10-17T03:48:55.508Z,14.27
2018-10-17T03:51:23.643Z,15.77
2018-10-17T03:53:51.882Z,15.00
2018-10-17T03:56:20.101Z,15.03
2018-10-17T03:58:48.319Z,14.63
2018-10-17T04:01:16.592Z,15.67
2018-10-17T04:03:44.682Z,14.93
2018-10-17T04:06:12.842Z,15.77
2018-10-17T04:08:41.015Z,14.37
2018-10-17T04:11:09.259Z,17.30
2018-10-17T04:13:37.394Z,14.90
2018-10-17T04:16:05.563Z,15.43
2018-10-17T04:18:33.739Z,13.23
2018-10-17T04:21:02.111Z,15.00
2018-10-17T04:23:30.300Z,14.33
2018-10-17T04:25:58.463Z,14.67
2018-10-17T04:28:26.635Z,14.30
2018-10-17T04:30:54.836Z,14.57
2018-10-17T04:33:23.072Z,15.03
2018-10-17T04:35:51.264Z,15.43
2018-10-17T04:38:19.456Z,15.53
2018-10-17T04:40:47.667Z,15.03
2018-10-17T04:43:16.042Z,14.97
2018-10-17T04:45:44.194Z,14.83
2018-10-17T04:48:12.364Z,15.10
2018-10-17T04:50:40.701Z,14.53
2018-10-17T04:53:09.886Z,15.07
2018-10-17T04:55:38.054Z,17.53
2018-10-17T04:58:06.260Z,14.90
2018-10-17T05:00:34.426Z,14.53
2018-10-17T05:03:02.594Z,15.47
2018-10-17T05:05:30.830Z,16.73
2018-10-17T05:07:59.100Z,15.10
2018-10-17T05:10:27.468Z,14.73
2018-10-17T05:12:55.912Z,20.33
2018-10-17T05:15:24.241Z,15.20
2018-10-17T05:17:52.380Z,15.47
2018-10-17T05:20:20.829Z,14.10
2018-10-17T05:22:49.341Z,16.60
2018-10-17T05:25:18.259Z,17.33
2018-10-17T05:27:46.915Z,17.27
2018-10-17T05:30:15.149Z,17.03
2018-10-17T05:32:43.351Z,17.27
2018-10-17T05:35:12.242Z,14.97
2018-10-17T05:37:40.399Z,17.07
2018-10-17T05:40:08.511Z,15.70
2018-10-17T05:42:36.707Z,16.73
2018-10-17T05:45:06.040Z,20.60
2018-10-17T05:47:34.370Z,16.67
2018-10-17T05:50:02.667Z,18.10
2018-10-17T05:52:30.968Z,19.03
2018-10-17T05:54:59.163Z,19.57
2018-10-17T05:57:27.339Z,24.90
2018-10-17T05:59:55.544Z,31.27
2018-10-17T06:02:26.443Z,24.10
2018-10-17T06:04:55.160Z,21.77
2018-10-17T06:07:23.532Z,18.47
2018-10-17T06:09:52.343Z,18.53
2018-10-17T06:12:20.615Z,24.80
2018-10-17T06:14:48.807Z,20.83
2018-10-17T06:17:17.041Z,26.63
2018-10-17T06:19:45.306Z,23.63
2018-10-17T06:22:13.609Z,24.57
2018-10-17T06:24:41.935Z,17.87
2018-10-17T06:27:10.913Z,20.07
2018-10-17T06:29:39.094Z,20.67
2018-10-17T06:32:07.299Z,20.77
2018-10-17T06:34:35.553Z,19.50
2018-10-17T06:37:05.487Z,24.20
2018-10-17T06:39:33.752Z,19.10
2018-10-17T06:42:02.022Z,22.30
2018-10-17T06:44:30.237Z,18.37
2018-10-17T06:46:58.512Z,21.10
2018-10-17T06:49:26.655Z,17.83
2018-10-17T06:51:54.848Z,16.17
2018-10-17T06:54:23.123Z,17.63
2018-10-17T06:56:51.471Z,18.90
2018-10-17T06:59:19.675Z,16.50
2018-10-17T07:01:47.997Z,17.57
2018-10-17T07:04:16.072Z,17.50
2018-10-17T07:06:44.258Z,19.03
2018-10-17T07:09:12.460Z,15.97
2018-10-17T07:11:40.655Z,17.00
2018-10-17T07:14:08.831Z,16.43
2018-10-17T07:16:37.004Z,15.93
2018-10-17T07:19:05.305Z,17.73
2018-10-17T07:21:33.396Z,17.03
2018-10-17T07:24:01.579Z,18.47
2018-10-17T07:26:29.783Z,18.97
2018-10-17T07:28:58.018Z,16.67
2018-10-17T07:31:26.180Z,16.57
2018-10-17T07:33:54.392Z,16.90
2018-10-17T07:36:22.603Z,19.77
2018-10-17T07:38:50.831Z,17.20
2018-10-17T07:41:19.007Z,20.33
2018-10-17T07:43:47.203Z,16.80
2018-10-17T07:46:15.375Z,21.50
2018-10-17T07:48:43.590Z,17.03
2018-10-17T07:51:11.784Z,17.17
2018-10-17T07:53:40.026Z,23.23
2018-10-17T07:56:08.211Z,17.97
2018-10-17T07:58:36.428Z,19.20
2018-10-17T08:01:04.650Z,21.10
2018-10-17T08:03:32.848Z,20.17
2018-10-17T08:06:01.081Z,18.10
2018-10-17T08:08:29.247Z,24.90
2018-10-17T08:10:57.451Z,17.37
2018-10-17T08:13:25.775Z,16.93
2018-10-17T08:15:53.972Z,18.40
2018-10-17T08:18:22.149Z,16.40
2018-10-17T08:20:50.335Z,19.60
2018-10-17T08:23:18.511Z,15.30
2018-10-17T08:25:46.704Z,13.83
2018-10-17T08:28:14.907Z,16.03
2018-10-17T08:30:43.347Z,14.60
2018-10-17T08:33:11.573Z,15.87
2018-10-17T08:35:39.907Z,13.20
2018-10-17T08:38:08.072Z,15.80
2018-10-17T08:40:36.268Z,15.57
2018-10-17T08:43:05.295Z,14.63
2018-10-17T08:45:33.527Z,19.20
2018-10-17T08:48:01.694Z,14.70
2018-10-17T08:50:29.927Z,14.30
2018-10-17T08:52:58.059Z,16.03
2018-10-17T08:55:26.247Z,14.97
2018-10-17T08:57:54.510Z,14.17
2018-10-17T09:00:22.612Z,14.77
2018-10-17T09:02:50.795Z,13.63
2018-10-17T09:05:18.978Z,14.60
2018-10-17T09:07:47.214Z,15.40
2018-10-17T09:10:15.371Z,14.10
2018-10-17T09:12:43.599Z,15.27
2018-10-17T09:15:11.791Z,14.30
2018-10-17T09:17:40.023Z,12.87
2018-10-17T09:20:08.979Z,13.43
2018-10-17T09:22:37.104Z,13.77
2018-10-17T09:25:05.848Z,13.40
2018-10-17T09:27:34.095Z,14.40
2018-10-17T09:30:02.434Z,13.83
2018-10-17T09:32:30.610Z,14.70
2018-10-17T09:34:58.855Z,14.60
2018-10-17T09:37:27.163Z,15.17
2018-10-17T09:39:55.370Z,13.70
2018-10-17T09:42:23.555Z,16.27
2018-10-17T09:44:51.755Z,14.13
2018-10-17T09:47:19.969Z,16.00
2018-10-17T09:49:48.160Z,16.87
2018-10-17T09:52:16.472Z,16.77
2018-10-17T09:54:44.571Z,13.47
2018-10-17T09:57:12.793Z,14.57
2018-10-17T09:59:40.981Z,13.37
2018-10-17T10:02:09.240Z,14.77
2018-10-17T10:04:37.391Z,12.07
2018-10-17T10:07:05.611Z,13.03
2018-10-17T10:09:33.811Z,13.73
2018-10-17T10:12:02.040Z,14.13
2018-10-17T10:14:30.194Z,13.97
2018-10-17T10:16:58.445Z,12.43
2018-10-17T10:19:26.552Z,15.50
2018-10-17T10:21:54.754Z,13.17
2018-10-17T10:24:22.959Z,14.27
2018-10-17T10:26:51.172Z,13.33
2018-10-17T10:29:19.404Z,13.57
2018-10-17T10:31:47.616Z,16.00
2018-10-17T10:34:15.935Z,13.20
2018-10-17T10:36:44.048Z,12.60
2018-10-17T10:39:13.035Z,13.97
2018-10-17T10:41:41.514Z,13.63
2018-10-17T10:44:09.731Z,14.23
2018-10-17T10:46:37.890Z,12.30
2018-10-17T10:49:06.084Z,12.57
2018-10-17T10:51:34.306Z,12.87
2018-10-17T10:54:02.547Z,14.33
2018-10-17T10:56:30.631Z,15.60
2018-10-17T10:58:58.865Z,13.83
2018-10-17T11:01:26.999Z,12.53
2018-10-17T11:03:55.196Z,14.00
2018-10-17T11:06:23.375Z,22.17
2018-10-17T11:08:51.577Z,13.47
2018-10-17T11:11:19.879Z,12.83
2018-10-17T11:13:48.052Z,12.73
2018-10-17T11:16:16.199Z,12.00
2018-10-17T11:18:44.413Z,12.67
2018-10-17T11:21:12.656Z,12.87
2018-10-17T11:23:40.869Z,12.03
2018-10-17T11:26:09.117Z,12.10
2018-10-17T11:28:37.340Z,13.13
2018-10-17T11:31:05.576Z,11.03
2018-10-17T11:33:33.796Z,22.30
2018-10-17T11:36:01.988Z,11.13
2018-10-17T11:38:30.180Z,12.17
2018-10-17T11:40:58.465Z,15.63
2018-10-17T11:43:26.573Z,13.57
2018-10-17T11:45:54.762Z,11.77
2018-10-17T11:48:22.934Z,18.13
2018-10-17T11:50:51.138Z,12.03
2018-10-17T11:53:19.300Z,11.17
2018-10-17T11:55:47.495Z,14.17
2018-10-17T11:58:15.692Z,11.67
2018-10-17T12:00:43.874Z,11.37
2018-10-17T12:03:12.114Z,10.90
2018-10-17T12:05:40.597Z,11.07
2018-10-17T12:08:08.449Z,10.30
2018-10-17T12:10:36.695Z,11.47
2018-10-17T12:13:04.884Z,11.90
2018-10-17T12:15:33.046Z,13.17
2018-10-17T12:18:01.291Z,10.67
2018-10-17T12:20:29.407Z,11.60
2018-10-17T12:22:57.575Z,12.03
2018-10-17T12:25:25.754Z,11.37
2018-10-17T12:27:54.058Z,11.67
2018-10-17T12:30:22.103Z,10.07
2018-10-17T12:32:50.268Z,11.77
2018-10-17T12:35:18.581Z,14.80
2018-10-17T12:37:46.615Z,17.40
2018-10-17T12:40:14.935Z,14.03
2018-10-17T12:42:42.959Z,11.13
2018-10-17T12:45:11.223Z,13.97
2018-10-17T12:47:39.364Z,14.27
2018-10-17T12:50:08.346Z,35.70
2018-10-17T12:52:36.577Z,29.03
2018-10-17T12:55:05.899Z,23.30
2018-10-17T12:57:33.950Z,15.43
2018-10-17T13:00:02.114Z,14.97
2018-10-17T13:02:30.278Z,8.77
2018-10-17T13:04:58.450Z,11.20
2018-10-17T13:07:26.616Z,12.03
2018-10-17T13:09:55.098Z,10.40
2018-10-17T13:12:23.519Z,10.10
2018-10-17T13:14:51.765Z,14.27
2018-10-17T13:17:19.852Z,10.03
2018-10-17T13:19:48.011Z,12.67
2018-10-17T13:22:16.186Z,16.07
2018-10-17T13:24:44.448Z,18.40
2018-10-17T13:27:12.572Z,17.07
2018-10-17T13:29:40.756Z,10.67
2018-10-17T13:32:08.938Z,8.83
2018-10-17T13:34:37.438Z,7.60
2018-10-17T13:37:05.972Z,7.40
2018-10-17T13:39:34.078Z,8.20
2018-10-17T13:42:02.298Z,8.67
2018-10-17T13:44:30.419Z,10.07
2018-10-17T13:46:58.631Z,10.67
2018-10-17T13:49:26.768Z,8.37
2018-10-17T13:51:54.921Z,10.07
2018-10-17T13:54:23.091Z,8.43
2018-10-17T13:56:51.255Z,7.40
2018-10-17T13:59:19.505Z,8.23
2018-10-17T14:01:47.587Z,10.90
2018-10-17T14:04:15.861Z,8.80
2018-10-17T14:06:43.960Z,9.13
2018-10-17T14:09:12.246Z,11.33
2018-10-17T14:11:40.424Z,9.30
2018-10-17T14:14:08.553Z,8.07
2018-10-17T14:16:36.723Z,9.13
2018-10-17T14:19:04.902Z,8.43
2018-10-17T14:21:33.108Z,8.07
2018-10-17T14:24:01.296Z,7.87
2018-10-17T14:26:29.454Z,8.60
2018-10-17T14:28:57.643Z,8.20
2018-10-17T14:31:25.834Z,8.37
2018-10-17T14:33:54.023Z,8.93
2018-10-17T14:36:22.312Z,9.00
2018-10-17T14:38:50.442Z,9.27
2018-10-17T14:41:18.648Z,11.07
2018-10-17T14:43:46.966Z,9.07
2018-10-17T14:46:15.029Z,9.80
2018-10-17T14:48:43.220Z,9.00
2018-10-17T14:51:11.502Z,9.83
2018-10-17T14:53:39.602Z,10.90
2018-10-17T14:56:07.792Z,9.53
2018-10-17T14:58:35.970Z,10.73
2018-10-17T15:01:04.151Z,9.17
2018-10-17T15:03:32.326Z,9.30
2018-10-17T15:06:00.502Z,7.37
2018-10-17T15:08:28.719Z,8.47
2018-10-17T15:10:57.125Z,9.83
2018-10-17T15:13:25.075Z,9.50
2018-10-17T15:15:53.251Z,10.53
2018-10-17T15:18:21.427Z,9.50
2018-10-17T15:20:49.631Z,8.87
2018-10-17T15:23:17.812Z,9.50
2018-10-17T15:25:46.044Z,10.00
2018-10-17T15:28:14.275Z,9.40
2018-10-17T15:30:42.482Z,10.47
2018-10-17T15:33:10.701Z,11.40
2018-10-17T15:35:38.838Z,8.00
2018-10-17T15:38:07.035Z,8.07
2018-10-17T15:40:35.215Z,7.40
2018-10-17T15:43:03.453Z,8.57
2018-10-17T15:45:31.578Z,13.87
2018-10-17T15:47:59.756Z,9.10
2018-10-17T15:50:27.933Z,9.13
2018-10-17T15:52:56.116Z,9.73
2018-10-17T15:55:24.286Z,16.63
2018-10-17T15:57:52.471Z,9.83
2018-10-17T16:00:20.659Z,9.33
2018-10-17T16:02:48.961Z,10.50
2018-10-17T16:05:17.039Z,10.97
2018-10-17T16:07:45.252Z,11.87
2018-10-17T16:10:13.456Z,10.43
2018-10-17T16:12:41.641Z,11.17
2018-10-17T16:15:10.351Z,10.43
2018-10-17T16:17:38.508Z,10.57
2018-10-17T16:20:08.450Z,10.67
2018-10-17T16:22:36.673Z,15.70
2018-10-17T16:25:05.195Z,12.67
2018-10-17T16:27:33.362Z,12.50
2018-10-17T16:30:01.575Z,11.20
2018-10-17T16:32:29.711Z,13.63
2018-10-17T16:34:57.875Z,11.97
2018-10-17T16:37:26.048Z,10.97
2018-10-17T16:39:54.202Z,13.30
2018-10-17T16:42:22.375Z,12.70
2018-10-17T16:44:50.554Z,12.90
2018-10-17T16:47:18.760Z,14.07
2018-10-17T16:49:47.108Z,14.20
2018-10-17T16:52:15.157Z,13.83
2018-10-17T16:54:43.318Z,13.63
2018-10-17T16:57:11.526Z,14.80
2018-10-17T16:59:40.114Z,14.93
2018-10-17T17:02:08.711Z,13.13
2018-10-17T17:04:36.996Z,15.63
2018-10-17T17:07:05.327Z,13.73
2018-10-17T17:09:33.499Z,14.97
2018-10-17T17:12:01.717Z,19.30
2018-10-17T17:14:29.877Z,13.93
2018-10-17T17:16:58.012Z,18.63
2018-10-17T17:19:26.178Z,18.10
2018-10-17T17:21:54.357Z,16.80
2018-10-17T17:24:22.531Z,15.30
2018-10-17T17:26:50.737Z,18.00
2018-10-17T17:29:18.906Z,17.33
2018-10-17T17:31:47.088Z,17.60
2018-10-17T17:34:15.259Z,23.37
2018-10-17T17:36:43.437Z,18.43
2018-10-17T17:39:11.602Z,18.57
2018-10-17T17:41:39.804Z,20.13
2018-10-17T17:44:07.980Z,19.10
2018-10-17T17:46:36.198Z,19.27
2018-10-17T17:49:04.495Z,15.77
2018-10-17T17:51:32.659Z,20.13
2018-10-17T17:54:00.831Z,22.70
2018-10-17T17:56:29.016Z,21.63
2018-10-17T17:58:57.193Z,28.30
2018-10-17T18:01:25.374Z,20.60
2018-10-17T18:03:53.600Z,23.53
2018-10-17T18:06:21.801Z,21.70
2018-10-17T18:08:49.971Z,21.00
2018-10-17T18:11:22.352Z,26.80
2018-10-17T18:13:51.091Z,30.67
2018-10-17T18:16:19.262Z,24.67
2018-10-17T18:18:47.595Z,28.70
2018-10-17T18:21:15.995Z,22.47
2018-10-17T18:23:44.654Z,26.10
2018-10-17T18:26:13.061Z,35.27
2018-10-17T18:28:41.814Z,24.27
2018-10-17T18:31:10.083Z,27.90
2018-10-17T18:33:38.366Z,24.67
2018-10-17T18:36:06.641Z,29.40
2018-10-17T18:38:34.814Z,27.47
2018-10-17T18:41:02.982Z,27.27
2018-10-17T18:43:31.159Z,31.47
2018-10-17T18:45:59.339Z,26.10
2018-10-17T18:48:27.528Z,26.30
2018-10-17T18:50:55.824Z,38.67
2018-10-17T18:53:23.994Z,28.33
2018-10-17T18:55:52.348Z,30.10
2018-10-17T18:58:20.411Z,30.77
2018-10-17T19:00:48.582Z,22.13
2018-10-17T19:03:16.851Z,29.80
2018-10-17T19:05:44.935Z,21.67
2018-10-17T19:08:13.113Z,32.30
2018-10-17T19:10:41.295Z,24.97
2018-10-17T19:13:09.458Z,29.73
2018-10-17T19:15:37.639Z,27.10
2018-10-17T19:18:06.168Z,27.53
2018-10-17T19:20:34.334Z,23.80
2018-10-17T19:23:02.512Z,23.63
2018-10-17T19:25:30.705Z,28.67
2018-10-17T19:27:58.867Z,23.23
2018-10-17T19:30:27.050Z,24.83
2018-10-17T19:32:55.276Z,25.30
2018-10-17T19:35:23.418Z,33.80
2018-10-17T19:37:51.736Z,28.30
2018-10-17T19:40:19.952Z,32.73
2018-10-17T19:42:48.148Z,23.90
2018-10-17T19:45:16.376Z,36.47
2018-10-17T19:47:44.518Z,24.77
2018-10-17T19:50:12.675Z,32.03
2018-10-17T19:52:40.853Z,31.07
2018-10-17T19:55:10.010Z,31.60
2018-10-17T19:57:38.634Z,34.93
2018-10-17T20:00:09.330Z,28.50
2018-10-17T20:02:37.506Z,38.07
2018-10-17T20:05:05.978Z,27.63
2018-10-17T20:07:34.194Z,30.10
2018-10-17T20:10:02.339Z,27.33
2018-10-17T20:12:30.506Z,33.67
2018-10-17T20:14:58.761Z,29.50
2018-10-17T20:17:26.888Z,43.63
2018-10-17T20:19:55.064Z,29.03
2018-10-17T20:22:23.268Z,35.63
2018-10-17T20:24:51.528Z,33.33
2018-10-17T20:27:19.699Z,31.80
2018-10-17T20:29:47.878Z,35.70
2018-10-17T20:32:16.034Z,37.57
2018-10-17T20:34:44.204Z,38.23
2018-10-17T20:37:12.374Z,28.20
2018-10-17T20:39:40.535Z,39.27
2018-10-17T20:42:08.745Z,34.23
2018-10-17T20:44:36.878Z,32.67
2018-10-17T20:47:05.608Z,28.10
2018-10-17T20:49:33.766Z,36.60
2018-10-17T20:52:01.943Z,28.20
2018-10-17T20:54:30.113Z,38.10
2018-10-17T20:56:58.274Z,29.10
2018-10-17T20:59:26.706Z,34.80
2018-10-17T21:01:55.024Z,40.17
2018-10-17T21:04:23.160Z,29.07
2018-10-17T21:06:51.337Z,37.03
2018-10-17T21:09:19.518Z,29.70
2018-10-17T21:11:47.686Z,38.23
2018-10-17T21:14:15.976Z,27.33
2018-10-17T21:16:44.023Z,32.03
2018-10-17T21:19:12.219Z,27.03
2018-10-17T21:21:40.370Z,30.63
2018-10-17T21:24:08.545Z,38.10
2018-10-17T21:26:41.285Z,27.63
2018-10-17T21:29:09.575Z,27.07
2018-10-17T21:31:38.303Z,28.40
2018-10-17T21:34:06.479Z,31.03
2018-10-17T21:36:34.637Z,31.73
2018-10-17T21:39:03.037Z,30.53
2018-10-17T21:41:31.214Z,30.47
2018-10-17T21:43:59.411Z,25.80
2018-10-17T21:46:27.553Z,28.80
2018-10-17T21:48:55.726Z,26.67
2018-10-17T21:51:23.992Z,26.57
2018-10-17T21:53:52.155Z,28.10
2018-10-17T21:56:20.323Z,24.50
2018-10-17T21:58:48.515Z,27.87
2018-10-17T22:01:16.720Z,28.30
2018-10-17T22:03:44.923Z,29.37
2018-10-17T22:06:13.102Z,25.30
2018-10-17T22:08:41.263Z,27.57
2018-10-17T22:11:09.463Z,34.90
2018-10-17T22:13:37.671Z,24.80
2018-10-17T22:16:05.864Z,30.17
2018-10-17T22:18:34.038Z,27.07
2018-10-17T22:21:02.232Z,24.73
2018-10-17T22:23:30.410Z,25.10
2018-10-17T22:25:58.605Z,28.27
2018-10-17T22:28:26.771Z,24.57
2018-10-17T22:30:54.958Z,23.33
2018-10-17T22:33:23.135Z,24.60
2018-10-17T22:35:51.322Z,24.23
2018-10-17T22:38:19.500Z,25.77
2018-10-17T22:40:47.721Z,30.27
2018-10-17T22:43:15.935Z,24.90
2018-10-17T22:45:44.135Z,25.07
2018-10-17T22:48:12.311Z,29.30
2018-10-17T22:50:40.494Z,26.43
2018-10-17T22:53:08.666Z,24.43
2018-10-17T22:55:36.855Z,24.83
2018-10-17T22:58:05.279Z,24.33
2018-10-17T23:00:33.467Z,25.10
2018-10-17T23:03:01.642Z,27.37
2018-10-17T23:05:29.826Z,24.53
2018-10-17T23:07:58.043Z,26.57
2018-10-17T23:10:26.207Z,25.37
2018-10-17T23:12:54.772Z,27.57
2018-10-17T23:15:22.970Z,23.17
2018-10-17T23:17:51.142Z,24.43
2018-10-17T23:20:19.330Z,22.43
2018-10-17T23:22:47.507Z,27.70
2018-10-17T23:25:15.694Z,23.07
2018-10-17T23:27:43.875Z,25.23
2018-10-17T23:30:12.076Z,26.03
2018-10-17T23:32:40.410Z,28.87
2018-10-17T23:35:08.629Z,31.73
2018-10-17T23:37:36.935Z,30.33
2018-10-17T23:40:05.602Z,25.77
2018-10-17T23:42:33.994Z,24.63
2018-10-17T23:45:02.071Z,22.87
2018-10-17T23:47:30.274Z,23.90
2018-10-17T23:49:58.475Z,26.63
2018-10-17T23:52:26.659Z,26.17
2018-10-17T23:54:54.839Z,22.63
2018-10-17T23:57:23.015Z,20.80
2018-10-17T23:59:51.195Z,25.73
